Saint-Dizier-Robinson (BA 113) Air Base

Airport
ICAO code: 
LFSI
Summary
ICAO Region: 
EUR
Territory: 
Location: 
, Champagne-Ardenne
Serving: 
St.-dizier
Elevation: 
458 ft
Coordinates: 
Aerial View: 
48° 38' 9.629" N, 4° 53' 57.901" E
Metar
Observation
LFSI 241630Z AUTO 07005KT CAVOK 06/00 Q1031
Station
St-Dizier
Date/Time
2022-01-24 16:30:00
Wind direction
70°
Wind speed
05 kts
Lowest cloud amount
clouds and visibility OK
Temperature
6°C
Dew point
0°C
Humidity
65%
QNH
1031 hPa
Weather condition
n/a

Runways

Designator Length Width Surface Rops
11/29 2412 45 ASP No/No
Airport map: 
Aerial View: 

SKYbrary Partners:

Safety knowledge contributed by: